Terminal Aerodrome Forecast
Issued by NWS

Home | Current Version | Previous Version | Graphics & Text | Print | Product List | Glossary On
Versions: 1 2 3 4 5 6 7 8 9 10 11 12 13 14 15 16
236
FTUS41 KCLE 192328
TAFFDY
TAF
KFDY 192328Z 2000/2024 VRB03KT P6SM SCT250
     FM200800 08003KT 3SM BR SKC
      TEMPO 2010/2013 1SM BR SCT003
     FM201400 09005KT 3SM HZ BKN250
     FM201600 11007KT P6SM BKN250=

USA.gov is the U.S. government's official web portal to all federal, state and local government web resources and services.